Time;durP1;ratioP1;P1;durP2;ratioP2;P2;SDS_P1;SDS_P2;PMS_P1;PMS_P2;Temp;Humidity;BMP_temperature;BMP_pressure;BME280_temperature;BME280_humidity;BME280_pressure;Samples;Min_cycle;Max_cycle;Signal;HPM_P1;HPM_P2
2021/05/04 02:46:14;;;;;;;10.65;9.75;;;5.90;99.90;;;;;;5992839;22;89357;-87
2021/05/04 02:48:42;;;;;;;10.50;9.63;;;6.00;99.90;;;;;;4928097;28;85869;-86
2021/05/04 02:51:10;;;;;;;10.30;9.40;;;6.00;99.90;;;;;;4929219;28;87353;-84
2021/05/04 02:53:36;;;;;;;10.25;9.55;;;5.90;99.90;;;;;;4925233;28;88402;-85
2021/05/04 02:56:04;;;;;;;11.00;10.10;;;5.90;99.90;;;;;;4940895;28;87971;-83
2021/05/04 02:58:30;;;;;;;11.57;10.57;;;5.90;99.90;;;;;;4959915;28;86255;-84
2021/05/04 03:00:56;;;;;;;12.20;11.18;;;5.90;99.90;;;;;;4958548;28;86646;-82
2021/05/04 03:03:22;;;;;;;12.00;11.07;;;5.80;99.90;;;;;;4940601;28;86946;-82
2021/05/04 03:05:48;;;;;;;11.98;10.98;;;5.80;99.90;;;;;;4931722;28;86592;-87
2021/05/04 03:08:14;;;;;;;12.43;11.48;;;5.80;99.90;;;;;;4927823;28;87149;-83
2021/05/04 03:10:40;;;;;;;12.20;11.30;;;5.80;99.90;;;;;;4928033;28;87725;-81
2021/05/04 03:13:06;;;;;;;12.10;11.10;;;5.80;99.90;;;;;;4908323;28;87047;-85
2021/05/04 03:15:32;;;;;;;12.52;11.52;;;5.80;99.90;;;;;;4909787;28;86966;-82
2021/05/04 03:17:57;;;;;;;9.80;8.93;;;5.70;99.90;;;;;;4931317;28;86711;-83
2021/05/04 03:20:23;;;;;;;11.68;10.43;;;5.70;99.90;;;;;;4914147;28;89814;-85
2021/05/04 03:22:49;;;;;;;11.80;10.80;;;5.70;99.90;;;;;;4927746;28;88117;-82
2021/05/04 03:25:16;;;;;;;10.77;9.98;;;5.60;99.90;;;;;;4927930;28;86949;-83
2021/05/04 03:27:43;;;;;;;9.40;8.45;;;5.70;99.90;;;;;;4913250;28;87305;-83
2021/05/04 03:30:09;;;;;;;10.18;9.35;;;5.60;99.90;;;;;;4898705;28;89054;-84
2021/05/04 03:32:36;;;;;;;10.20;9.23;;;5.60;99.90;;;;;;4926587;28;89619;-82
2021/05/04 03:35:02;;;;;;;9.55;8.63;;;5.50;99.90;;;;;;4937047;28;86785;-83
2021/05/04 03:37:28;;;;;;;9.23;8.32;;;5.50;99.90;;;;;;4912543;28;86162;-83
2021/05/04 03:39:53;;;;;;;10.23;9.35;;;5.50;99.90;;;;;;4929201;28;88230;-85
2021/05/04 03:42:19;;;;;;;9.13;8.43;;;5.50;99.90;;;;;;4928234;28;86758;-84
2021/05/04 03:44:45;;;;;;;9.38;8.52;;;5.40;99.90;;;;;;4928467;28;87813;-84
2021/05/04 03:47:10;;;;;;;9.98;9.18;;;5.40;99.90;;;;;;4908632;28;86922;-83
2021/05/04 03:49:37;;;;;;;10.05;9.20;;;5.30;99.90;;;;;;4927600;28;86962;-84
2021/05/04 03:52:03;;;;;;;10.45;9.45;;;5.30;99.90;;;;;;4928468;28;86958;-82
2021/05/04 03:54:29;;;;;;;10.95;10.13;;;5.20;99.90;;;;;;4928574;28;87793;-83
2021/05/04 03:56:55;;;;;;;12.23;11.20;;;5.20;99.90;;;;;;4938725;28;86866;-84
2021/05/04 03:59:21;;;;;;;12.25;11.35;;;5.10;99.90;;;;;;4927688;28;86995;-84
2021/05/04 04:01:47;;;;;;;15.27;14.18;;;5.10;99.90;;;;;;4927783;28;86995;-81
2021/05/04 04:04:13;;;;;;;15.43;14.23;;;5.10;99.90;;;;;;4922369;28;86535;-83
2021/05/04 04:06:39;;;;;;;13.45;12.45;;;5.00;99.90;;;;;;4926262;28;87450;-84
2021/05/04 04:09:05;;;;;;;14.15;13.07;;;5.10;99.90;;;;;;4908917;28;92488;-82
2021/05/04 04:11:31;;;;;;;12.75;11.75;;;5.00;99.90;;;;;;4928264;28;89281;-85
2021/05/04 04:13:56;;;;;;;12.60;11.60;;;5.00;99.90;;;;;;4928579;28;86944;-81
2021/05/04 04:16:22;;;;;;;11.85;10.88;;;5.00;99.90;;;;;;4928185;28;87090;-82
2021/05/04 04:18:47;;;;;;;10.43;9.52;;;5.00;99.90;;;;;;4927096;28;87378;-84
2021/05/04 04:21:14;;;;;;;12.63;11.63;;;5.10;99.90;;;;;;4927974;28;87277;-80
2021/05/04 04:23:39;;;;;;;12.07;11.07;;;5.10;99.90;;;;;;4926043;28;87112;-81
2021/05/04 04:26:05;;;;;;;12.77;11.75;;;5.10;99.90;;;;;;4929434;28;86396;-79
2021/05/04 04:28:31;;;;;;;12.15;11.02;;;5.20;99.90;;;;;;4929952;28;86781;-80
2021/05/04 04:30:56;;;;;;;12.43;11.43;;;5.20;99.90;;;;;;4930526;28;86576;-83
2021/05/04 04:33:27;;;;;;;11.05;10.25;;;5.30;99.90;;;;;;4922367;28;87936;-82
2021/05/04 04:35:53;;;;;;;11.85;10.57;;;5.40;99.90;;;;;;4933221;28;87037;-82
2021/05/04 04:38:20;;;;;;;11.48;10.57;;;5.50;99.90;;;;;;4929143;28;87081;-81
2021/05/04 04:40:46;;;;;;;9.65;8.85;;;5.60;99.90;;;;;;4929780;28;87006;-83
2021/05/04 04:43:12;;;;;;;9.77;8.85;;;5.70;99.90;;;;;;4930631;28;87097;-81
2021/05/04 04:45:38;;;;;;;9.30;8.50;;;5.80;99.90;;;;;;4930603;28;87083;-84
2021/05/04 04:48:04;;;;;;;9.02;8.27;;;5.90;99.90;;;;;;4928396;28;87267;-83
2021/05/04 04:50:30;;;;;;;9.65;8.85;;;6.00;99.90;;;;;;4929150;28;87002;-82
2021/05/04 04:52:55;;;;;;;11.25;10.40;;;6.10;99.90;;;;;;4929376;28;87187;-82
2021/05/04 04:55:21;;;;;;;13.80;12.90;;;6.20;99.90;;;;;;4923859;28;86867;-82
2021/05/04 04:57:47;;;;;;;16.40;15.38;;;6.30;99.90;;;;;;4927893;28;88350;-83
2021/05/04 05:00:13;;;;;;;19.75;18.55;;;6.30;99.90;;;;;;4928654;28;88330;-82
2021/05/04 05:02:38;;;;;;;16.70;15.40;;;6.40;99.90;;;;;;4923889;28;87113;-83
2021/05/04 05:05:05;;;;;;;15.52;14.05;;;6.50;99.90;;;;;;4931199;28;87220;-82
2021/05/04 05:07:31;;;;;;;12.95;11.80;;;6.60;99.90;;;;;;4938910;28;89175;-84
2021/05/04 05:09:56;;;;;;;12.02;11.13;;;6.70;99.90;;;;;;4929372;28;87019;-81
2021/05/04 05:12:23;;;;;;;16.00;14.93;;;6.70;99.90;;;;;;4928087;28;86935;-83
2021/05/04 05:14:49;;;;;;;10.68;9.77;;;6.80;99.90;;;;;;4928409;28;86054;-85
2021/05/04 05:20:38;;;;;;;10.48;9.57;;;6.90;99.90;;;;;;4931298;28;87001;-82
2021/05/04 05:23:03;;;;;;;16.77;15.55;;;7.00;99.90;;;;;;4928622;28;87862;-82
2021/05/04 05:28:55;;;;;;;12.25;11.25;;;7.20;99.90;;;;;;4927734;28;87233;-86
2021/05/04 05:34:43;;;;;;;14.30;13.50;;;7.40;99.90;;;;;;4926748;28;86302;-85
2021/05/04 05:37:09;;;;;;;13.98;13.13;;;7.40;99.90;;;;;;4914325;28;86935;-83
2021/05/04 05:42:57;;;;;;;15.73;14.55;;;7.50;99.90;;;;;;4927738;28;86980;-84
2021/05/04 05:45:23;;;;;;;17.95;16.88;;;7.60;99.90;;;;;;4930197;28;86134;-84
2021/05/04 05:47:49;;;;;;;17.00;15.57;;;7.50;99.90;;;;;;4929222;28;86969;-84
2021/05/04 05:50:15;;;;;;;15.95;14.82;;;7.60;99.90;;;;;;4929455;28;87811;-83
2021/05/04 05:52:41;;;;;;;15.27;14.38;;;7.70;99.90;;;;;;4928382;28;91518;-83
2021/05/04 05:55:07;;;;;;;13.52;12.43;;;7.70;99.90;;;;;;4929924;28;86659;-84
2021/05/04 05:57:32;;;;;;;14.73;13.73;;;7.80;99.90;;;;;;4929701;28;86492;-83
2021/05/04 05:59:58;;;;;;;9.90;9.10;;;8.00;99.90;;;;;;4929381;28;88069;-83
2021/05/04 06:02:24;;;;;;;13.15;11.93;;;8.20;99.90;;;;;;4930121;28;87821;-84
2021/05/04 06:04:51;;;;;;;11.95;11.05;;;8.40;99.90;;;;;;4928927;28;86965;-85
2021/05/04 06:07:17;;;;;;;10.55;9.73;;;8.60;99.90;;;;;;4929635;28;86103;-83
2021/05/04 06:09:43;;;;;;;12.95;11.90;;;8.90;99.90;;;;;;4930551;28;87466;-84
2021/05/04 06:12:09;;;;;;;16.52;15.30;;;9.10;99.90;;;;;;4928839;28;87081;-85
2021/05/04 06:14:36;;;;;;;12.90;12.05;;;9.30;99.90;;;;;;4929368;28;87477;-85
2021/05/04 06:17:03;;;;;;;9.07;8.27;;;9.50;99.90;;;;;;4929504;28;86857;-85
2021/05/04 06:19:28;;;;;;;10.57;9.75;;;9.70;99.90;;;;;;4930887;28;87402;-84
2021/05/04 06:21:54;;;;;;;9.52;8.75;;;9.80;99.60;;;;;;4931238;28;86885;-83
2021/05/04 06:24:20;;;;;;;9.98;9.18;;;9.90;99.90;;;;;;4930921;28;86941;-84
2021/05/04 06:26:45;;;;;;;8.70;7.90;;;10.00;99.90;;;;;;4930140;28;86982;-85
2021/05/04 06:29:11;;;;;;;8.95;8.02;;;10.20;99.90;;;;;;4931239;28;87324;-86
2021/05/04 06:31:37;;;;;;;8.55;7.97;;;10.30;98.40;;;;;;4931656;28;86215;-85
2021/05/04 06:34:05;;;;;;;11.88;9.07;;;10.50;97.10;;;;;;4932675;28;87042;-86
2021/05/04 06:36:31;;;;;;;10.98;10.00;;;10.70;97.10;;;;;;4932941;28;86747;-84
2021/05/04 06:38:57;;;;;;;9.70;9.00;;;11.10;96.40;;;;;;4938223;28;87251;-83
2021/05/04 06:41:22;;;;;;;8.13;7.53;;;11.40;96.30;;;;;;4928783;28;88237;-83
2021/05/04 06:43:50;;;;;;;10.32;9.65;;;11.80;92.00;;;;;;4928061;28;86900;-84
2021/05/04 06:46:16;;;;;;;9.75;9.07;;;12.30;89.00;;;;;;4926702;28;86844;-83
2021/05/04 06:52:14;;;;;;;28.77;27.23;;;12.50;90.20;;;;;;4908994;28;87286;-83
2021/05/04 06:54:42;;;;;;;21.77;20.40;;;12.90;90.10;;;;;;4926725;28;87215;-84
2021/05/04 06:57:07;;;;;;;14.38;13.57;;;13.00;90.60;;;;;;4922231;28;86120;-83
2021/05/04 06:59:33;;;;;;;30.80;29.38;;;13.30;91.50;;;;;;4918269;28;87378;-84
2021/05/04 07:01:59;;;;;;;32.47;31.00;;;13.50;90.00;;;;;;4926547;28;86736;-83
2021/05/04 07:04:26;;;;;;;30.02;28.60;;;13.70;90.80;;;;;;4934373;28;87931;-85
2021/05/04 07:06:52;;;;;;;31.73;29.95;;;14.00;91.10;;;;;;4946129;28;86643;-84
2021/05/04 07:09:17;;;;;;;20.15;19.13;;;14.30;88.10;;;;;;4929234;28;86903;-84
2021/05/04 07:11:43;;;;;;;11.57;10.77;;;14.70;85.20;;;;;;4928295;28;86739;-84
2021/05/04 07:14:22;;;;;;;15.77;14.88;;;15.00;83.60;;;;;;4928270;28;86806;-83
2021/05/04 07:16:48;;;;;;;18.67;17.77;;;15.10;80.80;;;;;;4930351;28;87007;-85
2021/05/04 07:19:14;;;;;;;13.63;12.85;;;15.10;80.30;;;;;;4936332;28;88178;-85
2021/05/04 07:21:39;;;;;;;15.25;14.45;;;14.90;79.40;;;;;;4936262;28;86269;-87
2021/05/04 07:24:06;;;;;;;13.93;13.10;;;14.90;80.40;;;;;;4938874;28;86287;-85
2021/05/04 07:26:32;;;;;;;22.15;21.15;;;15.00;82.10;;;;;;4927512;28;86862;-85
2021/05/04 07:28:58;;;;;;;28.20;26.70;;;15.10;79.10;;;;;;4931863;28;88327;-84
2021/05/04 07:31:25;;;;;;;22.50;21.40;;;15.20;77.60;;;;;;4920707;28;89205;-85
2021/05/04 07:33:50;;;;;;;20.15;19.08;;;15.30;76.40;;;;;;4920679;28;87368;-85
2021/05/04 07:36:16;;;;;;;30.90;29.50;;;15.50;74.60;;;;;;4935097;28;87127;-85
2021/05/04 07:38:42;;;;;;;26.75;25.35;;;15.60;72.80;;;;;;4929304;28;88608;-86
2021/05/04 07:41:08;;;;;;;14.73;13.68;;;15.50;70.50;;;;;;4913069;28;87623;-85
2021/05/04 07:43:35;;;;;;;14.93;14.07;;;15.40;71.80;;;;;;4931552;28;86621;-87
2021/05/04 07:46:01;;;;;;;12.65;12.02;;;15.60;73.80;;;;;;4929942;28;86207;-86
2021/05/04 07:48:27;;;;;;;12.02;11.32;;;16.00;73.00;;;;;;4929729;28;87513;-87
2021/05/04 07:50:52;;;;;;;14.30;13.50;;;16.20;72.40;;;;;;4925723;28;86884;-86
2021/05/04 07:53:18;;;;;;;49.88;47.47;;;16.40;72.70;;;;;;4939613;28;87773;-85
2021/05/04 07:55:44;;;;;;;29.02;27.58;;;16.70;71.30;;;;;;4931941;28;87115;-87
2021/05/04 07:58:10;;;;;;;17.02;16.13;;;17.00;66.50;;;;;;4929698;28;89671;-85
2021/05/04 08:00:36;;;;;;;15.65;14.68;;;17.00;67.20;;;;;;4929504;28;87035;-85
2021/05/04 08:03:02;;;;;;;10.55;9.75;;;17.30;67.20;;;;;;4929797;28;86911;-87
2021/05/04 08:05:28;;;;;;;11.88;11.18;;;17.50;67.30;;;;;;4946443;28;87066;-85
2021/05/04 08:07:54;;;;;;;9.50;8.85;;;17.60;65.50;;;;;;4930836;28;87955;-85
2021/05/04 08:10:20;;;;;;;9.68;8.93;;;17.90;65.30;;;;;;4930708;28;88018;-84
2021/05/04 08:12:45;;;;;;;13.60;12.88;;;18.20;62.40;;;;;;4930281;28;86880;-84
2021/05/04 08:15:17;;;;;;;40.80;39.00;;;18.40;58.70;;;;;;4930016;28;86545;-85
2021/05/04 08:17:47;;;;;;;38.70;36.83;;;18.20;62.30;;;;;;4928848;28;88592;-85
2021/05/04 08:20:13;;;;;;;42.92;41.13;;;18.40;62.60;;;;;;4930022;28;87260;-87
2021/05/04 08:22:38;;;;;;;18.73;17.65;;;19.30;62.20;;;;;;4929036;28;86774;-84
2021/05/04 08:25:06;;;;;;;29.00;27.58;;;20.40;57.10;;;;;;4927117;28;87107;-84
2021/05/04 08:27:31;;;;;;;23.25;22.05;;;21.20;56.20;;;;;;4924701;28;89309;-84
2021/05/04 08:29:57;;;;;;;16.08;15.23;;;22.30;53.60;;;;;;4925527;28;87489;-84
2021/05/04 08:32:22;;;;;;;50.90;48.72;;;22.90;49.00;;;;;;4925004;28;86978;-84
2021/05/04 08:34:48;;;;;;;43.42;41.47;;;23.30;49.10;;;;;;4925805;28;86073;-84
2021/05/04 08:37:14;;;;;;;16.77;15.60;;;23.70;47.40;;;;;;4926187;28;88066;-85
2021/05/04 08:39:40;;;;;;;20.05;19.02;;;23.80;48.70;;;;;;4925007;28;86601;-84
2021/05/04 08:42:06;;;;;;;42.70;40.05;;;24.20;48.20;;;;;;4922764;28;87925;-84
2021/05/04 08:44:34;;;;;;;118.28;113.18;;;24.50;45.80;;;;;;4921593;28;87055;-86
2021/05/04 08:47:02;;;;;;;89.97;86.30;;;24.70;45.40;;;;;;4920716;28;87268;-84
2021/05/04 08:49:28;;;;;;;62.38;59.65;;;24.70;44.70;;;;;;4922611;28;87332;-85
2021/05/04 08:51:55;;;;;;;46.25;42.65;;;;;;;;;;4923720;28;87081;-84
2021/05/04 08:54:21;;;;;;;56.10;53.75;;;24.40;43.20;;;;;;4922861;28;86752;-83
2021/05/04 08:56:47;;;;;;;43.53;41.28;;;24.10;44.60;;;;;;4923620;28;87506;-85
2021/05/04 08:59:15;;;;;;;11.15;10.50;;;23.80;45.00;;;;;;4922580;28;87482;-84
2021/05/04 09:01:41;;;;;;;12.68;12.07;;;23.00;39.20;;;;;;4924158;28;86983;-84
2021/05/04 09:04:26;;;;;;;11.85;11.15;;;22.60;42.60;;;;;;4922798;28;87058;-86
2021/05/04 09:06:55;;;;;;;102.60;98.50;;;22.40;41.30;;;;;;4923506;28;88191;-85
2021/05/04 09:09:37;;;;;;;14.40;13.80;;;21.80;37.10;;;;;;4923766;28;87349;-84
2021/05/04 09:12:15;;;;;;;67.90;65.05;;;21.30;36.10;;;;;;4926122;28;87105;-84
2021/05/04 09:14:52;;;;;;;35.00;33.55;;;20.80;35.00;;;;;;4926327;28;86882;-83
2021/05/04 09:17:34;;;;;;;42.97;41.22;;;20.80;34.50;;;;;;4927054;28;86967;-84
2021/05/04 09:22:39;;;;;;;28.85;27.70;;;19.50;47.10;;;;;;4924220;28;86979;-86
2021/05/04 09:25:34;;;;;;;15.63;14.93;;;20.40;44.30;;;;;;4926878;28;86118;-84
2021/05/04 09:28:07;;;;;;;10.00;9.55;;;19.70;34.60;;;;;;4928083;28;87124;-84
2021/05/04 09:30:34;;;;;;;9.30;8.88;;;19.40;35.70;;;;;;4926730;28;87004;-84
2021/05/04 09:33:10;;;;;;;13.75;12.93;;;19.20;35.20;;;;;;4928275;28;88103;-84
2021/05/04 09:35:37;;;;;;;13.02;12.48;;;19.20;44.40;;;;;;4928692;28;86943;-84
2021/05/04 09:38:09;;;;;;;13.45;12.68;;;19.10;44.30;;;;;;4927059;28;87309;-85
2021/05/04 09:40:40;;;;;;;10.38;9.68;;;18.80;36.70;;;;;;4936387;28;86774;-83
2021/05/04 09:43:07;;;;;;;8.85;8.38;;;18.80;36.90;;;;;;4928632;28;86875;-84
2021/05/04 09:45:35;;;;;;;16.92;16.02;;;18.90;36.70;;;;;;4923885;28;87492;-84
2021/05/04 09:48:10;;;;;;;11.50;10.90;;;19.00;43.30;;;;;;4927706;28;86710;-85
2021/05/04 09:50:45;;;;;;;10.27;9.77;;;18.60;42.30;;;;;;4928305;28;87407;-83
2021/05/04 09:53:11;;;;;;;46.65;44.70;;;19.00;36.50;;;;;;4928738;28;87115;-83
2021/05/04 09:55:51;;;;;;;67.72;64.85;;;19.10;37.00;;;;;;4929084;28;86948;-85
2021/05/04 09:58:17;;;;;;;58.97;56.45;;;19.20;35.80;;;;;;4932559;28;88997;-85
2021/05/04 10:00:43;;;;;;;42.75;41.03;;;;;;;;;;4924698;28;88340;-88
2021/05/04 10:03:10;;;;;;;16.05;15.25;;;18.90;40.40;;;;;;4926990;28;87010;-88
2021/05/04 10:05:36;;;;;;;9.57;8.98;;;19.30;36.90;;;;;;4926505;28;87037;-83
2021/05/04 10:08:03;;;;;;;19.90;18.73;;;19.20;36.30;;;;;;4928627;28;86919;-84
2021/05/04 10:10:29;;;;;;;36.78;35.17;;;19.10;36.90;;;;;;4928789;28;86975;-83
2021/05/04 10:12:56;;;;;;;35.15;33.67;;;19.30;36.60;;;;;;4926707;28;86947;-86
2021/05/04 10:15:23;;;;;;;36.58;34.90;;;;;;;;;;4931020;28;87046;-85
2021/05/04 10:17:49;;;;;;;17.30;16.58;;;19.50;36.70;;;;;;4937129;28;87747;-83
2021/05/04 10:20:18;;;;;;;10.25;9.60;;;19.50;36.60;;;;;;4926993;28;87003;-82
2021/05/04 10:22:44;;;;;;;10.05;9.65;;;19.10;35.20;;;;;;4927884;28;88074;-83
2021/05/04 10:25:13;;;;;;;11.88;11.35;;;19.70;35.90;;;;;;4929377;28;86953;-82
2021/05/04 10:27:39;;;;;;;10.60;10.15;;;19.90;36.20;;;;;;4927498;28;87103;-81
2021/05/04 10:30:07;;;;;;;9.45;8.88;;;20.10;35.60;;;;;;4929591;28;88081;-81
2021/05/04 10:32:58;;;;;;;10.77;10.10;;;20.00;35.90;;;;;;4933958;28;86550;-84
2021/05/04 10:35:30;;;;;;;10.75;10.25;;;20.20;42.70;;;;;;4929449;28;87482;-82
2021/05/04 10:38:06;;;;;;;12.10;11.45;;;19.80;35.00;;;;;;4911412;28;87751;-83
2021/05/04 10:40:34;;;;;;;11.05;10.25;;;19.80;36.40;;;;;;4929256;28;86053;-81
2021/05/04 10:43:23;;;;;;;11.23;10.63;;;19.70;36.40;;;;;;4928597;28;87059;-85
2021/05/04 10:45:50;;;;;;;13.00;12.40;;;19.90;36.90;;;;;;4927807;28;86737;-82
2021/05/04 10:48:16;;;;;;;15.13;14.52;;;19.90;36.10;;;;;;4908247;28;90393;-83
2021/05/04 10:50:53;;;;;;;12.93;12.20;;;19.80;35.90;;;;;;4926276;28;89281;-82
2021/05/04 10:53:20;;;;;;;14.05;13.23;;;19.80;36.70;;;;;;4920448;28;86944;-81
2021/05/04 10:55:52;;;;;;;11.00;10.23;;;19.90;37.10;;;;;;4928837;28;87093;-82
2021/05/04 10:58:20;;;;;;;14.05;13.13;;;20.10;37.20;;;;;;4926084;28;87293;-81
2021/05/04 11:01:16;;;;;;;20.98;19.98;;;20.20;38.00;;;;;;4924702;28;87431;-83
2021/05/04 11:03:43;;;;;;;15.40;14.60;;;20.30;36.70;;;;;;4930870;28;87005;-82
2021/05/04 11:06:22;;;;;;;17.00;16.10;;;20.30;37.60;;;;;;4935008;28;86414;-83
2021/05/04 11:08:50;;;;;;;20.77;19.80;;;20.30;37.20;;;;;;4929354;28;87369;-83
2021/05/04 11:11:47;;;;;;;17.63;16.92;;;20.30;37.00;;;;;;4918765;28;87336;-82
2021/05/04 11:14:15;;;;;;;16.17;15.27;;;20.30;36.40;;;;;;4940760;28;87944;-82
2021/05/04 11:16:47;;;;;;;19.88;18.95;;;20.20;37.00;;;;;;4929075;28;87141;-82
2021/05/04 11:19:25;;;;;;;15.73;15.02;;;20.30;37.10;;;;;;4927157;28;87390;-82
2021/05/04 11:22:00;;;;;;;15.70;14.93;;;20.30;37.70;;;;;;4921525;28;87909;-82
2021/05/04 11:26:58;;;;;;;29.45;28.13;;;20.50;37.70;;;;;;4926928;28;87261;-82
2021/05/04 11:29:30;;;;;;;35.55;34.05;;;20.80;38.30;;;;;;4926843;28;87774;-82
2021/05/04 11:32:09;;;;;;;28.15;26.95;;;21.10;38.20;;;;;;4929434;28;87033;-82
2021/05/04 11:34:38;;;;;;;37.72;36.13;;;22.30;42.40;;;;;;4928443;28;86928;-86
2021/05/04 11:37:37;;;;;;;45.40;43.42;;;21.80;35.70;;;;;;4928567;28;86789;-84
2021/05/04 11:40:07;;;;;;;34.83;33.35;;;22.20;36.30;;;;;;4926549;28;88204;-84
2021/05/04 11:43:03;;;;;;;21.15;20.25;;;22.50;35.70;;;;;;4931606;28;88887;-83
2021/05/04 11:45:31;;;;;;;17.90;17.05;;;22.80;33.40;;;;;;4904380;28;88714;-84
2021/05/04 11:48:03;;;;;;;37.58;35.97;;;22.90;34.80;;;;;;4929854;28;86778;-83
2021/05/04 11:50:37;;;;;;;43.95;42.05;;;22.80;33.90;;;;;;4915510;28;87366;-83
2021/05/04 11:53:06;;;;;;;39.08;37.50;;;23.00;32.30;;;;;;4912932;28;87331;-83
2021/05/04 11:55:36;;;;;;;21.90;21.00;;;23.60;32.90;;;;;;4930682;28;86951;-83
2021/05/04 11:58:08;;;;;;;17.05;16.25;;;24.40;32.60;;;;;;4930655;28;86471;-83
2021/05/04 12:00:36;;;;;;;24.48;23.50;;;25.00;31.20;;;;;;4929746;28;87311;-85
2021/05/04 12:03:05;;;;;;;40.28;38.58;;;25.40;29.70;;;;;;4929990;28;88433;-83
2021/05/04 12:05:32;;;;;;;23.70;22.73;;;26.20;30.00;;;;;;4932887;28;88204;-85
2021/05/04 12:07:59;;;;;;;21.25;19.95;;;26.40;29.50;;;;;;4939203;28;86981;-85
2021/05/04 12:10:33;;;;;;;25.13;23.83;;;26.00;28.70;;;;;;4929751;28;86910;-84
2021/05/04 12:13:12;;;;;;;64.70;62.00;;;25.50;31.10;;;;;;4936031;28;88235;-84
2021/05/04 12:15:43;;;;;;;42.22;40.55;;;25.20;32.20;;;;;;4929412;28;86712;-83
2021/05/04 12:18:17;;;;;;;64.53;61.97;;;24.80;32.60;;;;;;4930361;28;86840;-83
2021/05/04 12:23:49;;;;;;;59.30;56.65;;;25.10;33.40;;;;;;4927527;28;87702;-83
2021/05/04 12:26:18;;;;;;;22.23;21.38;;;25.10;30.60;;;;;;4944099;28;86503;-80
2021/05/04 12:28:50;;;;;;;47.90;45.88;;;25.00;31.10;;;;;;4947198;28;86195;-80
2021/05/04 12:31:30;;;;;;;41.00;39.28;;;25.40;31.90;;;;;;4946172;28;88702;-81
2021/05/04 12:33:56;;;;;;;15.57;14.63;;;25.50;31.10;;;;;;4948066;28;87966;-82
2021/05/04 12:36:48;;;;;;;28.48;27.20;;;25.30;31.80;;;;;;4947403;28;86660;-82
2021/05/04 12:39:22;;;;;;;29.48;28.23;;;25.70;35.80;;;;;;4942530;28;86140;-85
2021/05/04 12:41:49;;;;;;;19.58;18.73;;;26.30;32.20;;;;;;4929877;28;86944;-85
2021/05/04 12:44:25;;;;;;;15.55;14.85;;;26.80;32.00;;;;;;4927506;28;87700;-85
2021/05/04 12:47:15;;;;;;;28.27;26.90;;;26.40;30.00;;;;;;4933838;28;87910;-85
2021/05/04 12:49:43;;;;;;;26.58;25.40;;;24.40;30.80;;;;;;4923693;28;86150;-83
2021/05/04 12:52:36;;;;;;;10.02;9.52;;;23.80;31.90;;;;;;4932461;28;87209;-83
2021/05/04 12:55:07;;;;;;;10.68;10.15;;;24.00;35.20;;;;;;4919058;28;90214;-85
2021/05/04 12:57:33;;;;;;;13.65;12.95;;;;;;;;;;4940895;28;88408;-82
2021/05/04 13:00:12;;;;;;;12.45;11.90;;;24.60;31.50;;;;;;4951052;28;86933;-83
2021/05/04 13:02:38;;;;;;;14.20;13.50;;;24.70;31.80;;;;;;4928037;28;87783;-85
2021/05/04 13:05:08;;;;;;;13.30;12.68;;;23.80;36.50;;;;;;4935829;28;87156;-84
2021/05/04 13:07:45;;;;;;;13.57;12.80;;;23.60;34.60;;;;;;4934941;28;86524;-85
2021/05/04 13:16:11;;;;;;;8.13;7.68;;;23.50;33.90;;;;;;4930689;28;86336;-83
2021/05/04 13:18:54;;;;;;;15.43;14.73;;;23.70;35.00;;;;;;4930182;28;86985;-84
2021/05/04 13:32:22;;;;;;;9.80;9.35;;;;;;;;;;4934562;28;86865;-84
2021/05/04 13:37:21;;;;;;;10.38;9.68;;;24.00;33.90;;;;;;4932453;28;87120;-86
2021/05/04 13:40:00;;;;;;;10.73;10.25;;;24.40;33.40;;;;;;4933154;28;86687;-87
2021/05/04 13:47:40;;;;;;;11.43;10.88;;;23.40;37.70;;;;;;4932829;28;87029;-85
2021/05/04 13:50:09;;;;;;;9.57;8.98;;;23.10;35.10;;;;;;4934921;28;87988;-83
2021/05/04 13:52:35;;;;;;;9.98;9.48;;;;;;;;;;4943589;28;86811;-82
2021/05/04 13:55:01;;;;;;;13.15;12.55;;;;;;;;;;4935698;28;87190;-85
2021/05/04 13:57:27;;;;;;;11.98;11.48;;;23.20;35.90;;;;;;4933500;28;87419;-83
2021/05/04 13:59:58;;;;;;;10.70;10.20;;;22.80;36.80;;;;;;4936832;28;86967;-85
2021/05/04 14:26:59;;;;;;;10.63;10.13;;;24.50;33.90;;;;;;4931155;28;86760;-87
2021/05/04 14:29:25;;;;;;;11.32;10.70;;;24.40;33.40;;;;;;4929666;28;87038;-86
2021/05/04 14:31:51;;;;;;;14.02;13.20;;;24.00;32.80;;;;;;4931155;28;86841;-86
2021/05/04 14:34:18;;;;;;;16.13;15.32;;;24.40;33.00;;;;;;4931124;28;86007;-85
2021/05/04 14:39:43;;;;;;;23.33;22.35;;;23.80;34.00;;;;;;4936397;28;86812;-84
2021/05/04 15:03:11;;;;;;;24.77;23.67;;;22.20;38.40;;;;;;4929088;28;86894;-83
2021/05/04 15:05:37;;;;;;;19.40;18.55;;;;;;;;;;4929327;28;87063;-85
2021/05/04 15:08:03;;;;;;;17.25;16.38;;;22.90;37.00;;;;;;4931395;28;88733;-85
2021/05/04 15:10:31;;;;;;;17.67;16.88;;;23.20;37.90;;;;;;4920925;28;91025;-84
2021/05/04 15:12:59;;;;;;;13.55;12.90;;;22.30;37.40;;;;;;4938655;28;86888;-86
2021/05/04 15:23:08;;;;;;;12.15;11.45;;;22.60;42.00;;;;;;4939672;28;86763;-82
2021/05/04 15:25:34;;;;;;;12.00;11.40;;;22.60;41.00;;;;;;4936371;28;86343;-85
2021/05/04 15:28:00;;;;;;;13.60;12.98;;;;;;;;;;4935255;28;87006;-84
2021/05/04 15:30:26;;;;;;;11.15;10.65;;;22.70;40.90;;;;;;4935949;28;87096;-82
2021/05/04 15:35:26;;;;;;;12.30;11.50;;;22.50;39.00;;;;;;4937545;28;87010;-80
2021/05/04 15:37:52;;;;;;;12.13;11.48;;;22.40;39.00;;;;;;4934366;28;87006;-81
2021/05/04 15:40:18;;;;;;;12.00;11.25;;;22.90;40.50;;;;;;4942167;28;87015;-81
2021/05/04 15:42:47;;;;;;;12.32;11.73;;;22.70;40.90;;;;;;4935901;28;86968;-80
2021/05/04 15:45:14;;;;;;;13.43;12.88;;;22.60;40.10;;;;;;4944474;28;86932;-83
2021/05/04 16:08:52;;;;;;;10.88;10.38;;;20.40;39.50;;;;;;4911235;28;87232;-82
2021/05/04 16:11:12;;;;;;;12.57;12.02;;;20.10;39.90;;;;;;4909622;28;88578;-83
2021/05/04 16:13:38;;;;;;;12.07;11.52;;;19.80;40.60;;;;;;4912505;28;86833;-84
2021/05/04 16:16:04;;;;;;;30.42;29.02;;;19.90;42.20;;;;;;4915103;28;86133;-82
2021/05/04 16:18:30;;;;;;;18.95;17.95;;;19.90;42.90;;;;;;4905786;28;88130;-82
2021/05/04 16:31:05;;;;;;;10.65;10.05;;;19.70;44.60;;;;;;4915757;28;87315;-84
2021/05/04 16:33:32;;;;;;;11.43;10.82;;;18.90;43.40;;;;;;4916983;28;86833;-86
2021/05/04 16:35:59;;;;;;;11.05;10.43;;;19.20;43.90;;;;;;4920195;28;86893;-84
2021/05/04 16:38:25;;;;;;;10.15;9.55;;;19.20;43.40;;;;;;4910490;28;87751;-84
2021/05/04 16:40:54;;;;;;;9.68;9.07;;;19.20;43.20;;;;;;4917138;28;86400;-82
2021/05/04 16:43:24;;;;;;;8.30;7.90;;;19.20;43.80;;;;;;4919449;28;87143;-84
2021/05/04 16:46:07;;;;;;;8.77;8.23;;;19.50;43.60;;;;;;4916253;28;86876;-85
2021/05/04 16:48:32;;;;;;;8.90;8.30;;;18.90;43.90;;;;;;4943210;28;88681;-82
2021/05/04 16:50:58;;;;;;;7.00;6.57;;;19.00;44.30;;;;;;4953233;28;87910;-82
2021/05/04 16:53:24;;;;;;;10.02;9.45;;;18.90;43.30;;;;;;4950389;28;86528;-87
2021/05/04 16:55:50;;;;;;;9.00;8.50;;;18.30;43.20;;;;;;4952590;28;86884;-85
2021/05/04 16:58:16;;;;;;;10.52;9.95;;;19.10;43.60;;;;;;4949213;28;88649;-84
2021/05/04 17:00:52;;;;;;;9.85;9.15;;;18.60;43.20;;;;;;4931843;28;86487;-86
2021/05/04 17:03:17;;;;;;;10.43;9.75;;;18.30;43.10;;;;;;4939600;28;86723;-84
2021/05/04 17:05:49;;;;;;;10.60;9.98;;;18.90;43.80;;;;;;4951892;28;86254;-84
2021/05/04 17:08:41;;;;;;;7.90;7.50;;;18.40;44.00;;;;;;4947108;28;87238;-83
2021/05/04 17:11:09;;;;;;;10.00;9.30;;;18.50;42.20;;;;;;4948979;28;87006;-83
2021/05/04 17:13:35;;;;;;;9.10;8.68;;;18.50;43.40;;;;;;4960459;28;87753;-85
2021/05/04 17:16:00;;;;;;;10.68;10.18;;;19.20;43.60;;;;;;4965882;28;87028;-85
2021/05/04 17:18:31;;;;;;;11.13;10.32;;;18.60;42.70;;;;;;4942734;28;88089;-84
2021/05/04 17:20:59;;;;;;;10.82;10.23;;;18.60;42.80;;;;;;4953359;28;87581;-83
2021/05/04 17:23:25;;;;;;;10.27;9.77;;;18.50;42.00;;;;;;4950366;28;87198;-83
2021/05/04 17:25:51;;;;;;;8.25;7.95;;;18.30;42.40;;;;;;4950030;28;87106;-83
2021/05/04 17:28:17;;;;;;;10.07;9.63;;;18.00;42.70;;;;;;4949186;28;86842;-83
2021/05/04 17:30:43;;;;;;;9.88;9.38;;;18.30;43.20;;;;;;4949041;28;86164;-83
2021/05/04 17:33:08;;;;;;;9.82;9.32;;;18.20;42.50;;;;;;4949311;28;86545;-83
2021/05/04 17:35:52;;;;;;;9.00;8.60;;;17.60;43.10;;;;;;4949375;28;86846;-83
2021/05/04 17:38:18;;;;;;;11.55;10.95;;;17.70;42.80;;;;;;4948699;28;87650;-82
2021/05/04 17:40:49;;;;;;;10.98;10.48;;;17.70;43.20;;;;;;4948350;28;87858;-82
2021/05/04 17:43:15;;;;;;;;;;;17.70;43.20;;;;;;4932614;28;86854;-80
2021/05/04 17:45:41;;;;;;;11.57;10.93;;;17.40;45.50;;;;;;4952103;28;86980;-84
2021/05/04 17:48:07;;;;;;;9.68;9.23;;;17.70;43.70;;;;;;4948663;28;87799;-84